createdAt,value
2022-10-01T00:02:20.566Z,8.40
2022-10-01T00:04:50.835Z,8.45
2022-10-01T00:07:20.218Z,8.34
2022-10-01T00:09:49.583Z,8.61
2022-10-01T00:12:19.038Z,8.37
2022-10-01T00:14:51.134Z,8.36
2022-10-01T00:17:20.558Z,8.28
2022-10-01T00:19:49.939Z,8.27
2022-10-01T00:22:19.393Z,8.20
2022-10-01T00:24:49.448Z,8.22
2022-10-01T00:27:18.842Z,8.30
2022-10-01T00:29:50.830Z,8.28
2022-10-01T00:32:20.241Z,8.22
2022-10-01T00:34:49.727Z,8.22
2022-10-01T00:37:21.426Z,8.21
2022-10-01T00:39:50.823Z,8.19
2022-10-01T00:42:22.132Z,8.21
2022-10-01T00:44:54.821Z,8.24
2022-10-01T00:47:28.654Z,8.24
2022-10-01T00:50:00.442Z,8.30
2022-10-01T00:52:33.791Z,8.27
2022-10-01T00:55:07.803Z,8.26
2022-10-01T00:57:37.616Z,8.21
2022-10-01T01:00:13.138Z,8.18
2022-10-01T01:02:42.887Z,8.23
2022-10-01T01:05:13.722Z,8.21
2022-10-01T01:07:45.438Z,8.17
2022-10-01T01:10:17.039Z,8.22
2022-10-01T01:12:56.117Z,8.18
2022-10-01T01:15:32.574Z,8.20
2022-10-01T01:18:09.350Z,8.24
2022-10-01T01:20:55.732Z,8.16
2022-10-01T01:23:44.986Z,8.17
2022-10-01T01:26:23.178Z,8.29
2022-10-01T01:28:58.071Z,8.23
2022-10-01T01:31:33.801Z,8.27
2022-10-01T01:34:03.568Z,8.31
2022-10-01T01:36:35.600Z,8.33
2022-10-01T01:39:07.258Z,8.28
2022-10-01T01:41:41.467Z,8.31
2022-10-01T01:44:17.697Z,8.29
2022-10-01T01:46:49.429Z,8.29
2022-10-01T01:49:20.759Z,8.32
2022-10-01T01:51:55.201Z,8.41
2022-10-01T01:54:25.432Z,8.44
2022-10-01T01:56:55.835Z,8.50
2022-10-01T01:59:28.043Z,8.64
2022-10-01T02:01:58.941Z,8.60
2022-10-01T02:04:30.705Z,8.62
2022-10-01T02:07:36.090Z,8.72
2022-10-01T02:10:19.578Z,8.81
2022-10-01T02:13:01.922Z,8.86
2022-10-01T02:15:38.423Z,8.92
2022-10-01T02:18:12.801Z,8.95
2022-10-01T02:20:45.689Z,8.98
2022-10-01T02:23:18.486Z,8.97
2022-10-01T02:25:51.236Z,9.02
2022-10-01T02:28:24.255Z,9.01
2022-10-01T02:30:58.444Z,9.08
2022-10-01T02:33:30.263Z,9.02
2022-10-01T02:36:01.523Z,9.01
2022-10-01T02:38:31.381Z,8.95
2022-10-01T02:41:05.052Z,8.93
2022-10-01T02:43:42.816Z,8.98
2022-10-01T02:46:21.408Z,8.98
2022-10-01T02:48:51.785Z,8.97
2022-10-01T02:51:28.594Z,8.99
2022-10-01T02:54:02.267Z,8.99
2022-10-01T02:56:48.773Z,9.02
2022-10-01T02:59:18.558Z,9.00
2022-10-01T03:01:50.591Z,9.01
2022-10-01T03:04:20.673Z,9.01
2022-10-01T03:06:50.037Z,8.98
2022-10-01T03:09:19.401Z,8.99
2022-10-01T03:11:48.801Z,9.01
2022-10-01T03:14:19.075Z,8.99
2022-10-01T03:16:51.027Z,9.00
2022-10-01T03:19:20.401Z,9.03
2022-10-01T03:21:50.184Z,9.02
2022-10-01T03:24:19.550Z,9.05
2022-10-01T03:26:49.114Z,9.04
2022-10-01T03:29:18.486Z,9.05
2022-10-01T03:31:47.938Z,9.04
2022-10-01T03:34:20.226Z,9.02
2022-10-01T03:36:50.051Z,9.07
2022-10-01T03:39:19.544Z,9.10
2022-10-01T03:41:48.966Z,9.14
2022-10-01T03:44:18.383Z,9.14
2022-10-01T03:46:47.817Z,9.14
2022-10-01T03:49:19.902Z,9.15
2022-10-01T03:51:49.546Z,9.19
2022-10-01T03:54:20.349Z,9.14
2022-10-01T03:56:49.789Z,9.11
2022-10-01T03:59:21.218Z,9.14
2022-10-01T04:01:50.734Z,9.11
2022-10-01T04:04:22.859Z,9.03
2022-10-01T04:06:52.202Z,9.02
2022-10-01T04:09:21.559Z,8.92
2022-10-01T04:11:50.918Z,8.84
2022-10-01T04:14:20.407Z,8.74
2022-10-01T04:16:52.563Z,8.74
2022-10-01T04:19:24.801Z,8.66
2022-10-01T04:21:54.182Z,8.70
2022-10-01T04:24:23.536Z,8.57
2022-10-01T04:26:53.631Z,8.51
2022-10-01T04:29:23.002Z,8.46
2022-10-01T04:31:53.459Z,8.45
2022-10-01T04:34:46.082Z,8.47
2022-10-01T04:37:15.470Z,8.36
2022-10-01T04:39:44.848Z,8.36
2022-10-01T04:42:15.122Z,8.36
2022-10-01T04:44:44.751Z,8.37
2022-10-01T04:47:14.123Z,8.40
2022-10-01T04:49:46.064Z,8.96
2022-10-01T04:52:15.451Z,9.37
2022-10-01T04:54:44.814Z,9.15
2022-10-01T04:57:14.514Z,8.66
2022-10-01T04:59:43.870Z,8.44
2022-10-01T05:02:13.482Z,8.34
2022-10-01T05:04:42.941Z,8.24
2022-10-01T05:07:14.918Z,8.19
2022-10-01T05:09:44.302Z,8.13
2022-10-01T05:12:13.662Z,8.10
2022-10-01T05:14:43.042Z,8.08
2022-10-01T05:17:12.409Z,8.11
2022-10-01T05:19:41.790Z,8.05
2022-10-01T05:22:11.151Z,8.04
2022-10-01T05:24:43.366Z,8.01
2022-10-01T05:27:13.459Z,7.97
2022-10-01T05:29:43.184Z,7.94
2022-10-01T05:32:13.484Z,7.89
2022-10-01T05:34:42.850Z,7.92
2022-10-01T05:37:12.298Z,7.89
2022-10-01T05:39:44.326Z,7.88
2022-10-01T05:42:13.782Z,7.89
2022-10-01T05:44:46.215Z,7.89
2022-10-01T05:47:16.153Z,7.87
2022-10-01T05:49:46.161Z,7.89
2022-10-01T05:52:17.350Z,7.91
2022-10-01T05:54:49.297Z,7.87
2022-10-01T05:57:18.675Z,7.86
2022-10-01T05:59:48.061Z,7.83
2022-10-01T06:02:17.554Z,7.83
2022-10-01T06:04:46.968Z,7.81
2022-10-01T06:07:16.351Z,7.83
2022-10-01T06:09:45.740Z,7.83
2022-10-01T06:12:19.951Z,7.83
2022-10-01T06:14:49.508Z,7.84
2022-10-01T06:17:18.893Z,7.83
2022-10-01T06:19:48.273Z,7.87
2022-10-01T06:22:17.685Z,7.87
2022-10-01T06:24:47.243Z,7.87
2022-10-01T06:27:19.258Z,7.85
2022-10-01T06:29:48.614Z,7.85
2022-10-01T06:32:19.788Z,7.85
2022-10-01T06:34:49.163Z,7.85
2022-10-01T06:37:18.635Z,7.86
2022-10-01T06:39:48.252Z,7.84
2022-10-01T06:42:20.228Z,7.85
2022-10-01T06:44:49.616Z,7.85
2022-10-01T06:47:18.998Z,7.84
2022-10-01T06:49:48.369Z,7.90
2022-10-01T06:52:30.527Z,7.88
2022-10-01T06:55:01.299Z,7.90
2022-10-01T06:57:34.317Z,7.89
2022-10-01T07:00:04.266Z,7.88
2022-10-01T07:02:33.698Z,7.88
2022-10-01T07:05:03.098Z,7.86
2022-10-01T07:07:32.878Z,7.89
2022-10-01T07:10:02.270Z,7.90
2022-10-01T07:12:34.249Z,7.89
2022-10-01T07:15:03.641Z,7.91
2022-10-01T07:17:32.997Z,7.90
2022-10-01T07:20:02.530Z,7.90
2022-10-01T07:22:31.889Z,7.91
2022-10-01T07:25:01.266Z,7.90
2022-10-01T07:27:30.662Z,7.90
2022-10-01T07:30:02.684Z,7.94
2022-10-01T07:32:32.504Z,7.93
2022-10-01T07:35:01.918Z,7.95
2022-10-01T07:37:31.278Z,7.95
2022-10-01T07:40:05.276Z,7.97
2022-10-01T07:42:37.304Z,7.96
2022-10-01T07:45:11.064Z,7.97
2022-10-01T07:47:41.959Z,8.01
2022-10-01T07:50:11.514Z,8.02
2022-10-01T07:52:40.886Z,8.03
2022-10-01T07:55:14.183Z,8.06
2022-10-01T07:57:43.851Z,8.07
2022-10-01T08:00:16.358Z,8.05
2022-10-01T08:02:49.680Z,8.09
2022-10-01T08:05:22.058Z,8.11
2022-10-01T08:07:52.034Z,8.14
2022-10-01T08:10:23.298Z,8.15
2022-10-01T08:12:52.970Z,8.17
2022-10-01T08:15:24.982Z,8.17
2022-10-01T08:17:54.356Z,8.20
2022-10-01T08:20:23.746Z,8.21
2022-10-01T08:22:53.188Z,8.22
2022-10-01T08:25:22.565Z,8.23
2022-10-01T08:27:51.990Z,8.30
2022-10-01T08:30:21.461Z,8.32
2022-10-01T08:32:57.134Z,8.32
2022-10-01T08:35:27.123Z,8.36
2022-10-01T08:37:57.166Z,8.35
2022-10-01T08:40:26.857Z,8.38
2022-10-01T08:43:00.171Z,8.40
2022-10-01T08:45:32.121Z,8.46
2022-10-01T08:48:10.238Z,8.50
2022-10-01T08:50:44.422Z,8.48
2022-10-01T08:53:19.387Z,8.52
2022-10-01T08:55:49.878Z,8.54
2022-10-01T08:58:35.497Z,8.56
2022-10-01T09:01:05.187Z,8.55
2022-10-01T09:03:37.298Z,8.60
2022-10-01T09:06:18.409Z,8.64
2022-10-01T09:08:59.163Z,8.69
2022-10-01T09:11:39.395Z,8.70
2022-10-01T09:14:16.779Z,8.73
2022-10-01T09:16:50.797Z,8.74
2022-10-01T09:19:35.609Z,8.77
2022-10-01T09:22:10.710Z,8.78
2022-10-01T09:24:46.948Z,8.83
2022-10-01T09:27:18.665Z,8.88
2022-10-01T09:29:52.002Z,8.89
2022-10-01T09:32:24.917Z,8.91
2022-10-01T09:35:06.977Z,8.94
2022-10-01T09:37:45.375Z,8.96
2022-10-01T09:40:19.896Z,9.00
2022-10-01T09:42:50.236Z,9.04
2022-10-01T09:45:21.044Z,9.14
2022-10-01T09:47:53.389Z,9.17
2022-10-01T09:50:34.170Z,9.23
2022-10-01T09:53:04.012Z,9.27
2022-10-01T09:55:36.797Z,9.32
2022-10-01T09:58:09.902Z,9.37
2022-10-01T10:00:41.106Z,9.47
2022-10-01T10:03:10.982Z,9.51
2022-10-01T10:05:49.514Z,9.61
2022-10-01T10:08:25.358Z,9.70
2022-10-01T10:11:00.410Z,9.76
2022-10-01T10:13:35.319Z,9.83
2022-10-01T10:16:12.475Z,9.93
2022-10-01T10:18:42.525Z,10.05
2022-10-01T10:21:19.667Z,10.10
2022-10-01T10:23:50.244Z,10.18
2022-10-01T10:26:25.952Z,10.22
2022-10-01T10:28:56.301Z,10.29
2022-10-01T10:31:28.760Z,10.33
2022-10-01T10:34:00.863Z,10.40
2022-10-01T10:36:36.117Z,10.50
2022-10-01T10:39:08.275Z,10.64
2022-10-01T10:41:38.137Z,10.71
2022-10-01T10:44:09.518Z,10.75
2022-10-01T10:46:45.247Z,10.86
2022-10-01T10:49:21.297Z,11.02
2022-10-01T10:51:55.399Z,11.36
2022-10-01T10:54:27.354Z,11.48
2022-10-01T10:57:00.781Z,11.75
2022-10-01T10:59:31.089Z,11.75
2022-10-01T11:02:00.903Z,11.74
2022-10-01T11:04:35.806Z,11.83
2022-10-01T11:07:08.033Z,12.02
2022-10-01T11:09:50.534Z,12.12
2022-10-01T11:12:30.546Z,12.20
2022-10-01T11:15:11.101Z,12.35
2022-10-01T11:18:09.425Z,12.54
2022-10-01T11:20:47.461Z,12.69
2022-10-01T11:23:37.658Z,12.73
2022-10-01T11:26:19.218Z,12.75
2022-10-01T11:28:58.237Z,12.95
2022-10-01T11:31:34.715Z,13.23
2022-10-01T11:34:17.700Z,13.35
2022-10-01T11:36:56.646Z,13.41
2022-10-01T11:39:30.269Z,13.33
2022-10-01T11:42:03.206Z,13.28
2022-10-01T11:44:37.233Z,13.55
2022-10-01T11:47:11.470Z,13.63
2022-10-01T11:49:53.625Z,13.64
2022-10-01T11:52:36.276Z,13.60
2022-10-01T11:55:28.783Z,13.47
2022-10-01T11:58:13.658Z,13.56
2022-10-01T12:00:44.121Z,13.61
2022-10-01T12:03:17.703Z,13.49
2022-10-01T12:05:47.351Z,13.39
2022-10-01T12:08:21.601Z,13.33
2022-10-01T12:10:58.874Z,13.32
2022-10-01T12:13:32.735Z,13.58
2022-10-01T12:16:07.062Z,14.02
2022-10-01T12:18:41.648Z,14.11
2022-10-01T12:21:16.576Z,14.12
2022-10-01T12:23:51.452Z,14.58
2022-10-01T12:26:28.958Z,15.03
2022-10-01T12:29:01.082Z,14.97
2022-10-01T12:31:35.153Z,14.52
2022-10-01T12:34:14.858Z,14.64
2022-10-01T12:36:49.469Z,14.69
2022-10-01T12:39:26.429Z,14.67
2022-10-01T12:42:05.178Z,14.70
2022-10-01T12:44:51.600Z,14.72
2022-10-01T12:47:28.490Z,14.95
2022-10-01T12:50:04.481Z,15.48
2022-10-01T12:52:42.409Z,15.71
2022-10-01T12:55:32.112Z,15.70
2022-10-01T12:58:08.177Z,15.49
2022-10-01T13:00:41.166Z,14.95
2022-10-01T13:03:32.481Z,14.79
2022-10-01T13:06:17.810Z,14.57
2022-10-01T13:09:04.443Z,14.37
2022-10-01T13:11:46.897Z,14.23
2022-10-01T13:14:20.305Z,13.66
2022-10-01T13:16:58.217Z,12.61
2022-10-01T13:19:32.988Z,11.45
2022-10-01T13:22:09.493Z,10.93
2022-10-01T13:24:42.930Z,10.69
2022-10-01T13:27:16.637Z,10.53
2022-10-01T13:29:58.602Z,10.42
2022-10-01T13:32:35.813Z,10.44
2022-10-01T13:35:25.812Z,10.38
2022-10-01T13:37:55.784Z,10.32
2022-10-01T13:40:28.553Z,10.37
2022-10-01T13:42:59.949Z,10.41
2022-10-01T13:45:43.690Z,10.47
2022-10-01T13:48:20.372Z,10.44
2022-10-01T13:50:59.242Z,10.52
2022-10-01T13:53:30.312Z,10.91
2022-10-01T13:56:00.110Z,11.02
2022-10-01T13:58:40.018Z,11.15
2022-10-01T14:01:31.159Z,11.52
2022-10-01T14:04:06.584Z,11.54
2022-10-01T14:06:42.622Z,11.56
2022-10-01T14:09:16.921Z,11.57
2022-10-01T14:12:00.579Z,11.62
2022-10-01T14:14:47.228Z,11.86
2022-10-01T14:17:22.662Z,11.66
2022-10-01T14:19:53.538Z,11.63
2022-10-01T14:22:46.556Z,11.71
2022-10-01T14:25:32.103Z,11.69
2022-10-01T14:28:12.711Z,11.85
2022-10-01T14:30:45.664Z,11.95
2022-10-01T14:33:30.021Z,11.83
2022-10-01T14:36:03.930Z,11.79
2022-10-01T14:38:33.715Z,11.79
2022-10-01T14:41:03.492Z,11.78
2022-10-01T14:43:35.661Z,11.86
2022-10-01T14:46:06.646Z,11.96
2022-10-01T14:48:40.347Z,11.87
2022-10-01T14:51:25.497Z,11.85
2022-10-01T14:53:55.318Z,11.82
2022-10-01T14:56:25.233Z,11.83
2022-10-01T14:58:57.170Z,11.72
2022-10-01T15:01:27.594Z,11.71
2022-10-01T15:03:59.643Z,11.73
2022-10-01T15:06:32.755Z,11.78
2022-10-01T15:09:10.149Z,11.78
2022-10-01T15:11:43.562Z,11.78
2022-10-01T15:14:18.318Z,11.85
2022-10-01T15:16:47.879Z,11.72
2022-10-01T15:19:21.964Z,11.73
2022-10-01T15:21:53.666Z,11.67
2022-10-01T15:24:27.136Z,11.67
2022-10-01T15:26:58.404Z,11.69
2022-10-01T15:29:28.081Z,11.73
2022-10-01T15:31:59.607Z,11.72
2022-10-01T15:34:32.150Z,11.74
2022-10-01T15:37:02.557Z,11.75
2022-10-01T15:39:33.913Z,11.77
2022-10-01T15:42:06.111Z,11.81
2022-10-01T15:44:47.198Z,11.85
2022-10-01T15:47:30.575Z,11.83
2022-10-01T15:50:23.750Z,11.81
2022-10-01T15:52:58.007Z,11.82
2022-10-01T15:55:32.928Z,11.78
2022-10-01T15:58:08.797Z,11.80
2022-10-01T16:00:44.926Z,11.85
2022-10-01T16:03:23.327Z,11.85
2022-10-01T16:05:57.265Z,11.85
2022-10-01T16:08:34.226Z,11.83
2022-10-01T16:11:19.897Z,11.87
2022-10-01T16:13:50.442Z,11.86
2022-10-01T16:16:30.725Z,11.82
2022-10-01T16:19:02.470Z,11.82
2022-10-01T16:21:42.694Z,11.78
2022-10-01T16:24:28.587Z,11.70
2022-10-01T16:27:01.390Z,11.68
2022-10-01T16:29:31.149Z,11.63
2022-10-01T16:32:01.623Z,11.59
2022-10-01T16:34:31.163Z,11.58
2022-10-01T16:37:03.155Z,11.54
2022-10-01T16:39:32.525Z,11.55
2022-10-01T16:42:22.739Z,11.44
2022-10-01T16:44:52.471Z,11.40
2022-10-01T16:47:21.873Z,11.34
2022-10-01T16:49:53.181Z,11.33
2022-10-01T16:52:25.636Z,11.29
2022-10-01T16:54:55.038Z,11.26
2022-10-01T16:57:24.398Z,11.22
2022-10-01T16:59:54.224Z,11.19
2022-10-01T17:02:23.665Z,11.16
2022-10-01T17:04:53.049Z,11.13
2022-10-01T17:07:24.990Z,11.08
2022-10-01T17:09:54.410Z,11.06
2022-10-01T17:12:26.930Z,11.04
2022-10-01T17:14:56.338Z,11.04
2022-10-01T17:17:25.714Z,10.99
2022-10-01T17:19:55.128Z,10.97
2022-10-01T17:22:27.097Z,10.97
2022-10-01T17:24:56.663Z,10.94
2022-10-01T17:27:26.276Z,10.93
2022-10-01T17:29:57.213Z,10.96
2022-10-01T17:32:26.874Z,10.89
2022-10-01T17:34:56.418Z,10.87
2022-10-01T17:37:28.385Z,10.86
2022-10-01T17:39:57.801Z,10.87
2022-10-01T17:42:27.288Z,10.91
2022-10-01T17:44:57.245Z,10.90
2022-10-01T17:47:26.751Z,10.88
2022-10-01T17:49:56.121Z,10.88
2022-10-01T17:52:28.215Z,10.83
2022-10-01T17:54:57.682Z,10.84
2022-10-01T17:57:27.194Z,10.80
2022-10-01T17:59:56.577Z,10.80
2022-10-01T18:02:42.948Z,10.77
2022-10-01T18:05:14.898Z,10.76
2022-10-01T18:07:47.002Z,10.75
2022-10-01T18:10:16.414Z,10.74
2022-10-01T18:12:45.831Z,10.73
2022-10-01T18:15:15.593Z,10.67
2022-10-01T18:17:51.469Z,10.66
2022-10-01T18:20:22.513Z,10.62
2022-10-01T18:22:54.550Z,10.62
2022-10-01T18:25:23.921Z,10.62
2022-10-01T18:27:53.334Z,10.59
2022-10-01T18:30:23.005Z,10.58
2022-10-01T18:32:57.096Z,10.57
2022-10-01T18:35:31.112Z,10.55
2022-10-01T18:38:06.882Z,10.52
2022-10-01T18:40:39.514Z,10.50
2022-10-01T18:43:11.598Z,10.50
2022-10-01T18:45:49.350Z,10.56
2022-10-01T18:48:36.201Z,10.57
2022-10-01T18:51:11.062Z,10.59
2022-10-01T18:53:58.418Z,10.54
2022-10-01T18:56:33.303Z,10.57
2022-10-01T18:59:24.073Z,10.58
2022-10-01T19:02:03.985Z,10.56
2022-10-01T19:04:52.086Z,10.56
2022-10-01T19:07:32.774Z,10.58
2022-10-01T19:10:11.734Z,10.54
2022-10-01T19:12:51.275Z,10.57
2022-10-01T19:15:28.385Z,10.57
2022-10-01T19:18:10.621Z,10.60
2022-10-01T19:20:52.739Z,10.59
2022-10-01T19:23:41.026Z,10.57
2022-10-01T19:26:14.938Z,10.57
2022-10-01T19:28:55.073Z,10.55
2022-10-01T19:31:30.758Z,10.52
2022-10-01T19:34:05.222Z,10.48
2022-10-01T19:36:39.812Z,10.49
2022-10-01T19:39:13.358Z,10.45
2022-10-01T19:41:47.546Z,10.44
2022-10-01T19:44:19.903Z,10.48
2022-10-01T19:46:50.202Z,10.43
2022-10-01T19:49:25.360Z,10.37
2022-10-01T19:51:59.691Z,10.36
2022-10-01T19:54:33.360Z,10.38
2022-10-01T19:57:09.174Z,10.38
2022-10-01T19:59:38.626Z,10.34
2022-10-01T20:02:16.970Z,10.33
2022-10-01T20:04:51.808Z,10.33
2022-10-01T20:07:24.583Z,10.32
2022-10-01T20:09:56.409Z,10.32
2022-10-01T20:12:33.822Z,10.28
2022-10-01T20:15:13.542Z,10.25
2022-10-01T20:17:53.129Z,10.21
2022-10-01T20:20:26.525Z,10.21
2022-10-01T20:23:09.193Z,10.19
2022-10-01T20:25:44.575Z,10.20
2022-10-01T20:28:20.653Z,10.16
2022-10-01T20:30:58.253Z,10.14
2022-10-01T20:33:32.555Z,10.20
2022-10-01T20:36:08.678Z,10.22
2022-10-01T20:38:42.953Z,10.19
2022-10-01T20:41:17.362Z,10.18
2022-10-01T20:56:43.827Z,10.05
2022-10-01T20:59:19.260Z,10.03
2022-10-01T21:01:56.380Z,10.02
2022-10-01T21:04:29.065Z,10.04
2022-10-01T21:07:02.000Z,10.04
2022-10-01T21:09:33.829Z,10.04
2022-10-01T21:12:08.502Z,10.00
2022-10-01T21:14:40.982Z,9.97
2022-10-01T21:17:27.178Z,9.99
2022-10-01T21:20:05.443Z,9.98
2022-10-01T21:22:45.324Z,10.00
2022-10-01T21:25:20.025Z,10.02
2022-10-01T21:28:10.151Z,10.01
2022-10-01T21:30:53.053Z,9.98
2022-10-01T21:33:27.086Z,9.93
2022-10-01T21:35:59.857Z,9.98
2022-10-01T21:38:33.810Z,10.03
2022-10-01T21:41:16.573Z,10.06
2022-10-01T21:44:10.694Z,10.10
2022-10-01T21:46:42.559Z,10.09
2022-10-01T21:49:16.995Z,10.10
2022-10-01T21:51:58.491Z,10.12
2022-10-01T21:54:41.025Z,10.16
2022-10-01T21:57:20.206Z,10.15
2022-10-01T22:00:12.188Z,10.15
2022-10-01T22:02:48.071Z,10.01
2022-10-01T22:05:24.636Z,9.96
2022-10-01T22:08:00.741Z,9.86
2022-10-01T22:10:31.732Z,9.83
2022-10-01T22:13:05.335Z,9.80
2022-10-01T22:15:40.120Z,9.81
2022-10-01T22:18:13.353Z,9.81
2022-10-01T22:20:44.125Z,9.77
2022-10-01T22:23:16.493Z,9.75
2022-10-01T22:25:49.494Z,9.72
2022-10-01T22:28:21.322Z,9.71
2022-10-01T22:30:54.461Z,9.70
2022-10-01T22:33:26.519Z,9.72
2022-10-01T22:35:58.886Z,9.72
2022-10-01T22:38:30.822Z,9.72
2022-10-01T22:41:03.733Z,9.70
2022-10-01T22:43:33.138Z,9.70
2022-10-01T22:46:17.890Z,9.71
2022-10-01T22:48:54.826Z,9.69
2022-10-01T22:51:38.749Z,9.67
2022-10-01T22:54:21.658Z,9.65
2022-10-01T22:56:57.306Z,9.65
2022-10-01T22:59:33.079Z,9.62
2022-10-01T23:02:10.929Z,9.57
2022-10-01T23:04:50.626Z,9.56
2022-10-01T23:07:24.733Z,9.56
2022-10-01T23:09:58.110Z,9.56
2022-10-01T23:12:34.740Z,9.54
2022-10-01T23:15:12.734Z,9.53
2022-10-01T23:17:48.156Z,9.53
2022-10-01T23:20:28.011Z,9.51
2022-10-01T23:23:09.517Z,9.50
2022-10-01T23:25:53.235Z,9.47
2022-10-01T23:28:29.187Z,9.45
2022-10-01T23:31:04.610Z,9.44
2022-10-01T23:33:47.258Z,9.42
2022-10-01T23:36:25.178Z,9.42
2022-10-01T23:39:09.594Z,9.39
2022-10-01T23:41:44.290Z,9.38
2022-10-01T23:44:16.963Z,9.37
2022-10-01T23:46:47.757Z,9.34
2022-10-01T23:49:21.575Z,9.32
2022-10-01T23:51:54.510Z,9.31
2022-10-01T23:54:27.600Z,9.29
2022-10-01T23:56:56.614Z,9.31
2022-10-01T23:59:31.246Z,9.30
